Time;durP1;ratioP1;P1;durP2;ratioP2;P2;SDS_P1;SDS_P2;PMS_P1;PMS_P2;Temp;Humidity;BMP_temperature;BMP_pressure;BME280_temperature;BME280_humidity;BME280_pressure;Samples;Min_cycle;Max_cycle;Signal;HPM_P1;HPM_P2
2023/12/11 00:02:14;;;;;;;1999.90;999.90;;;;;;;;;;5062019;28;20057;-92
2023/12/11 00:04:41;;;;;;;1999.90;999.90;;;;;;;;;;5064084;28;20047;-92
2023/12/11 00:07:07;;;;;;;1999.90;999.90;;;;;;;;;;5064768;28;20417;-91
2023/12/11 00:09:33;;;;;;;1999.90;999.90;;;;;;;;;;5062836;28;20044;-93
2023/12/11 00:12:01;;;;;;;1999.90;999.90;;;;;;;;;;5061677;28;20048;-94
2023/12/11 00:14:28;;;;;;;1999.90;999.90;;;;;;;;;;5063375;28;20049;-93
2023/12/11 00:16:55;;;;;;;1999.90;999.90;;;;;;;;;;5060136;28;20048;-93
2023/12/11 00:19:21;;;;;;;1999.90;999.90;;;;;;;;;;5063523;28;20041;-94
2023/12/11 00:21:48;;;;;;;1999.90;999.90;;;;;;;;;;5063901;28;20056;-93
2023/12/11 00:24:15;;;;;;;1999.90;999.90;;;;;;;;;;5061252;28;20036;-92
2023/12/11 00:26:42;;;;;;;1999.90;999.90;;;;;;;;;;5060123;28;20390;-92
2023/12/11 00:29:10;;;;;;;1999.90;999.90;;;;;;;;;;5063788;28;20055;-94
2023/12/11 00:31:36;;;;;;;1999.90;999.90;;;;;;;;;;5065999;28;20049;-94
2023/12/11 00:34:03;;;;;;;1999.90;999.90;;;;;;;;;;5064652;28;20067;-92
2023/12/11 00:36:29;;;;;;;1999.90;999.90;;;;;;;;;;5068333;28;20497;-89
2023/12/11 00:38:56;;;;;;;1999.90;999.90;;;;;;;;;;5064259;28;20052;-93
2023/12/11 00:41:23;;;;;;;1999.90;999.90;;;;;;;;;;5068458;28;20054;-92
2023/12/11 00:43:50;;;;;;;1999.90;999.90;;;;;;;;;;5061268;28;20053;-93
2023/12/11 00:46:21;;;;;;;1999.90;999.90;;;;;;;;;;5061455;28;20448;-91
2023/12/11 00:48:48;;;;;;;1999.90;999.90;;;;;;;;;;5066848;28;20455;-92
2023/12/11 00:51:18;;;;;;;1999.90;999.90;;;;;;;;;;5066767;28;20048;-92
2023/12/11 00:53:45;;;;;;;1999.90;999.90;;;;;;;;;;5068769;28;20044;-93
2023/12/11 00:56:11;;;;;;;1999.90;999.90;;;;;;;;;;5066935;28;20048;-94
2023/12/11 00:58:38;;;;;;;1999.90;999.90;;;;;;;;;;5067390;28;20043;-90
2023/12/11 01:01:04;;;;;;;1999.90;999.90;;;;;;;;;;5068398;28;20056;-92
2023/12/11 01:03:32;;;;;;;1999.90;999.90;;;;;;;;;;5066563;28;20059;-93
2023/12/11 01:05:59;;;;;;;1999.90;999.90;;;;;;;;;;5069503;28;20044;-89
2023/12/11 01:08:27;;;;;;;1999.90;999.90;;;;;;;;;;5062666;28;20055;-92
2023/12/11 01:10:54;;;;;;;1999.90;999.90;;;;;;;;;;5068384;28;20052;-91
2023/12/11 01:13:20;;;;;;;1999.90;999.90;;;;;;;;;;5065234;28;20067;-92
2023/12/11 01:15:47;;;;;;;1999.90;999.90;;;;;;;;;;5065941;28;20052;-91
2023/12/11 01:18:14;;;;;;;1999.90;999.90;;;;;;;;;;5062808;28;20053;-90
2023/12/11 01:20:41;;;;;;;1999.90;999.90;;;;;;;;;;5062463;28;20481;-91
2023/12/11 01:23:08;;;;;;;1999.90;999.90;;;;;;;;;;5066742;28;20055;-90
2023/12/11 01:25:35;;;;;;;1999.90;999.90;;;;;;;;;;5068201;28;20044;-93
2023/12/11 01:28:01;;;;;;;1999.90;999.90;;;;;;;;;;5064621;28;20087;-91
2023/12/11 01:30:28;;;;;;;1999.90;999.90;;;;;;;;;;5061585;28;20044;-90
2023/12/11 01:32:54;;;;;;;1999.90;999.90;;;;;;;;;;5069130;28;20048;-91
2023/12/11 01:35:21;;;;;;;1999.90;999.90;;;;;;;;;;5070714;28;20052;-92
2023/12/11 01:37:49;;;;;;;1999.90;999.90;;;;;;;;;;5063376;28;20464;-91
2023/12/11 01:40:16;;;;;;;1999.90;999.90;;;;;;;;;;5066908;28;20420;-90
2023/12/11 01:42:42;;;;;;;1999.90;999.90;;;;;;;;;;5068480;28;20045;-93
2023/12/11 01:45:10;;;;;;;1999.90;999.90;;;;;;;;;;5073500;28;20059;-90
2023/12/11 01:47:37;;;;;;;1999.90;999.90;;;;;;;;;;5074977;28;20087;-93
2023/12/11 01:50:04;;;;;;;1999.90;999.90;;;;;;;;;;5068613;28;20052;-90
2023/12/11 01:52:30;;;;;;;1999.90;999.90;;;;;;;;;;5074569;28;20075;-90
2023/12/11 01:54:58;;;;;;;1999.90;999.90;;;;;;;;;;5068630;28;20041;-90
2023/12/11 01:57:25;;;;;;;1999.90;999.90;;;;;;;;;;5069547;28;20131;-91
2023/12/11 01:59:51;;;;;;;1999.90;999.90;;;;;;;;;;5063626;28;20409;-91
2023/12/11 02:02:19;;;;;;;1999.90;999.90;;;;;;;;;;5071125;28;20075;-91
2023/12/11 02:04:49;;;;;;;1999.90;999.90;;;;;;;;;;5067872;28;20490;-92
2023/12/11 02:07:16;;;;;;;1999.90;999.90;;;;;;;;;;5071241;28;20072;-92
2023/12/11 02:09:42;;;;;;;1999.90;999.90;;;;;;;;;;5068795;28;20048;-92
2023/12/11 02:12:10;;;;;;;1999.90;999.90;;;;;;;;;;5066791;28;20060;-91
2023/12/11 02:14:37;;;;;;;1999.90;999.90;;;;;;;;;;5062382;28;20469;-90
2023/12/11 02:17:03;;;;;;;1999.90;999.90;;;;;;;;;;5064032;28;20056;-89
2023/12/11 02:19:30;;;;;;;1999.90;999.90;;;;;;;;;;5061873;28;20044;-90
2023/12/11 02:21:57;;;;;;;1999.90;999.90;;;;;;;;;;5058448;28;20044;-93
2023/12/11 02:24:27;;;;;;;1999.90;999.90;;;;;;;;;;5059812;28;20053;-91
2023/12/11 02:26:55;;;;;;;1999.90;999.90;;;;;;;;;;5066447;28;20044;-92
2023/12/11 02:29:22;;;;;;;1999.90;999.90;;;;;;;;;;5060597;28;20045;-90
2023/12/11 02:31:48;;;;;;;1999.90;999.90;;;;;;;;;;5066449;28;20049;-91
2023/12/11 02:34:15;;;;;;;1999.90;999.90;;;;;;;;;;5061993;28;20052;-90
2023/12/11 02:36:41;;;;;;;1999.90;999.90;;;;;;;;;;5062612;28;20066;-91
2023/12/11 02:39:08;;;;;;;1999.90;999.90;;;;;;;;;;5062459;28;20046;-91
2023/12/11 02:41:35;;;;;;;1999.90;999.90;;;;;;;;;;5062158;28;20099;-90
2023/12/11 02:44:02;;;;;;;1999.90;999.90;;;;;;;;;;5068559;28;20064;-91
2023/12/11 02:46:29;;;;;;;1999.90;999.90;;;;;;;;;;5061345;28;20045;-90
2023/12/11 02:48:55;;;;;;;1999.90;999.90;;;;;;;;;;5062666;28;20048;-91
2023/12/11 02:51:22;;;;;;;1999.90;999.90;;;;;;;;;;5065552;28;20040;-90
2023/12/11 02:53:49;;;;;;;1999.90;999.90;;;;;;;;;;5064680;28;20052;-91
2023/12/11 02:56:15;;;;;;;1999.90;999.90;;;;;;;;;;5063130;28;20045;-92
2023/12/11 02:58:43;;;;;;;1999.90;999.90;;;;;;;;;;5062389;28;20045;-92
2023/12/11 03:01:11;;;;;;;1999.90;999.90;;;;;;;;;;5068035;28;20078;-93
2023/12/11 03:03:37;;;;;;;1999.90;999.90;;;;;;;;;;5063393;28;20457;-95
2023/12/11 03:06:05;;;;;;;1999.90;999.90;;;;;;;;;;5068113;28;20075;-90
2023/12/11 03:08:31;;;;;;;1999.90;999.90;;;;;;;;;;5064221;28;20060;-90
2023/12/11 03:10:58;;;;;;;1999.90;999.90;;;;;;;;;;5072107;28;20075;-91
2023/12/11 03:13:25;;;;;;;1999.90;999.90;;;;;;;;;;5075005;28;20040;-93
2023/12/11 03:15:51;;;;;;;1999.90;999.90;;;;;;;;;;5075325;28;20064;-90
2023/12/11 03:18:19;;;;;;;1999.90;999.90;;;;;;;;;;5072083;28;20401;-91
2023/12/11 03:20:46;;;;;;;1999.90;999.90;;;;;;;;;;5072197;28;20175;-91
2023/12/11 03:23:13;;;;;;;1999.90;999.90;;;;;;;;;;5075144;28;20492;-91
2023/12/11 03:25:39;;;;;;;1999.90;999.90;;;;;;;;;;5062366;28;20514;-91
2023/12/11 03:28:06;;;;;;;1999.90;999.90;;;;;;;;;;5060104;28;20045;-90
2023/12/11 03:30:32;;;;;;;1999.90;999.90;;;;;;;;;;5059259;28;20059;-90
2023/12/11 03:32:59;;;;;;;1999.90;999.90;;;;;;;;;;5071884;28;20068;-89
2023/12/11 03:35:27;;;;;;;1999.90;999.90;;;;;;;;;;5068587;28;20417;-89
2023/12/11 03:37:53;;;;;;;1999.90;999.90;;;;;;;;;;5062156;28;20052;-89
2023/12/11 03:40:25;;;;;;;1999.90;999.90;;;;;;;;;;5057881;28;20040;-89
2023/12/11 03:42:51;;;;;;;1999.90;999.90;;;;;;;;;;5062049;28;20490;-89
2023/12/11 03:45:18;;;;;;;1999.90;999.90;;;;;;;;;;5061862;28;20048;-91
2023/12/11 03:47:44;;;;;;;1999.90;999.90;;;;;;;;;;5067554;28;20048;-89
2023/12/11 03:50:12;;;;;;;1999.90;999.90;;;;;;;;;;5066128;28;20059;-90
2023/12/11 03:52:40;;;;;;;1999.90;999.90;;;;;;;;;;5061603;28;20041;-89
2023/12/11 03:55:07;;;;;;;1999.90;999.90;;;;;;;;;;5061779;28;20052;-90
2023/12/11 03:57:34;;;;;;;1999.90;999.90;;;;;;;;;;5060578;28;20094;-89
2023/12/11 04:00:01;;;;;;;1999.90;999.90;;;;;;;;;;5062396;28;20057;-89
2023/12/11 04:02:27;;;;;;;1999.90;999.90;;;;;;;;;;5063769;28;20044;-88
2023/12/11 04:04:53;;;;;;;1999.90;999.90;;;;;;;;;;5057616;28;20057;-89
2023/12/11 04:07:20;;;;;;;1999.90;999.90;;;;;;;;;;5065667;28;20048;-87
2023/12/11 04:09:48;;;;;;;1999.90;999.90;;;;;;;;;;5060296;28;20060;-91
2023/12/11 04:12:14;;;;;;;1999.90;999.90;;;;;;;;;;5063105;28;20048;-90
2023/12/11 04:14:41;;;;;;;1999.90;999.90;;;;;;;;;;5060562;28;20040;-90
2023/12/11 04:17:07;;;;;;;1999.90;999.90;;;;;;;;;;5061005;28;20056;-89
2023/12/11 04:19:34;;;;;;;1999.90;999.90;;;;;;;;;;5060087;28;20045;-89
2023/12/11 04:22:00;;;;;;;1999.90;999.90;;;;;;;;;;5058968;28;20500;-89
2023/12/11 04:24:27;;;;;;;1999.90;999.90;;;;;;;;;;5061981;28;20045;-90
2023/12/11 04:26:55;;;;;;;1999.90;999.90;;;;;;;;;;5061525;28;20473;-88
2023/12/11 04:29:21;;;;;;;1999.90;999.90;;;;;;;;;;5062430;28;20060;-89
2023/12/11 04:31:48;;;;;;;1999.90;999.90;;;;;;;;;;5067694;28;20048;-89
2023/12/11 04:34:14;;;;;;;1999.90;999.90;;;;;;;;;;5064788;28;20052;-88
2023/12/11 04:36:42;;;;;;;1999.90;999.90;;;;;;;;;;5066997;28;20513;-90
2023/12/11 04:39:08;;;;;;;1999.90;999.90;;;;;;;;;;5063972;28;20481;-91
2023/12/11 04:41:35;;;;;;;1999.90;999.90;;;;;;;;;;5062328;28;20044;-90
2023/12/11 04:44:03;;;;;;;1999.90;999.90;;;;;;;;;;5069404;28;20048;-90
2023/12/11 04:46:30;;;;;;;1999.90;999.90;;;;;;;;;;5063282;28;20063;-88
2023/12/11 04:48:57;;;;;;;1999.90;999.90;;;;;;;;;;5064222;28;20056;-88
2023/12/11 04:51:24;;;;;;;1999.90;999.90;;;;;;;;;;5070259;28;20111;-89
2023/12/11 04:53:50;;;;;;;1999.90;999.90;;;;;;;;;;5062917;28;20425;-90
2023/12/11 04:56:17;;;;;;;1999.90;999.90;;;;;;;;;;5064330;28;20580;-89
2023/12/11 04:58:43;;;;;;;1999.90;999.90;;;;;;;;;;5065975;28;20058;-88
2023/12/11 05:01:11;;;;;;;1999.90;999.90;;;;;;;;;;5067702;28;20040;-88
2023/12/11 05:03:38;;;;;;;1999.90;999.90;;;;;;;;;;5072698;28;20135;-91
2023/12/11 05:06:05;;;;;;;1999.90;999.90;;;;;;;;;;5070664;28;20524;-90
2023/12/11 05:08:32;;;;;;;1999.90;999.90;;;;;;;;;;5060774;28;20515;-89
2023/12/11 05:10:59;;;;;;;1999.90;999.90;;;;;;;;;;5063795;28;20048;-89
2023/12/11 05:13:24;;;;;;;1999.90;999.90;;;;;;;;;;5066092;28;20051;-90
2023/12/11 05:15:51;;;;;;;1999.90;999.90;;;;;;;;;;5063574;28;20040;-88
2023/12/11 05:18:18;;;;;;;1999.90;999.90;;;;;;;;;;5066459;28;20502;-88
2023/12/11 05:20:45;;;;;;;1999.90;999.90;;;;;;;;;;5063132;28;20040;-90
2023/12/11 05:23:11;;;;;;;1999.90;999.90;;;;;;;;;;5063589;28;20257;-89
2023/12/11 05:25:38;;;;;;;1999.90;999.90;;;;;;;;;;5069231;28;20059;-89
2023/12/11 05:28:05;;;;;;;1999.90;999.90;;;;;;;;;;5066646;28;20053;-89
2023/12/11 05:30:31;;;;;;;1999.90;999.90;;;;;;;;;;5069968;28;20052;-89
2023/12/11 05:32:59;;;;;;;1999.90;999.90;;;;;;;;;;5062661;28;20048;-87
2023/12/11 05:35:27;;;;;;;1999.90;999.90;;;;;;;;;;5066425;28;20497;-89
2023/12/11 05:37:53;;;;;;;1999.90;999.90;;;;;;;;;;5067828;28;20144;-88
2023/12/11 05:40:20;;;;;;;1999.90;999.90;;;;;;;;;;5062456;28;20398;-88
2023/12/11 05:42:46;;;;;;;1999.90;999.90;;;;;;;;;;5065099;28;20057;-88
2023/12/11 05:45:13;;;;;;;1999.90;999.90;;;;;;;;;;5057409;28;20052;-88
2023/12/11 05:47:39;;;;;;;1999.90;999.90;;;;;;;;;;5067668;28;20047;-88
2023/12/11 05:50:07;;;;;;;1999.90;999.90;;;;;;;;;;5061552;28;20044;-88
2023/12/11 05:52:35;;;;;;;1999.90;999.90;;;;;;;;;;5063996;28;20049;-88
2023/12/11 05:55:01;;;;;;;1999.90;999.90;;;;;;;;;;5061317;28;20119;-89
2023/12/11 05:57:28;;;;;;;1999.90;999.90;;;;;;;;;;5062577;28;20057;-90
2023/12/11 05:59:54;;;;;;;1999.90;999.90;;;;;;;;;;5064911;28;20056;-88
2023/12/11 06:02:22;;;;;;;1999.90;999.90;;;;;;;;;;5064095;28;20049;-89
2023/12/11 06:04:48;;;;;;;1999.90;999.90;;;;;;;;;;5062999;28;20059;-89
2023/12/11 06:07:15;;;;;;;1999.90;999.90;;;;;;;;;;5066859;28;20056;-88
2023/12/11 06:09:42;;;;;;;1999.90;999.90;;;;;;;;;;5064688;28;20143;-88
2023/12/11 06:12:10;;;;;;;1999.90;999.90;;;;;;;;;;5066550;28;20060;-89
2023/12/11 06:14:39;;;;;;;1999.90;999.90;;;;;;;;;;5060443;28;20048;-88
2023/12/11 06:17:06;;;;;;;1999.90;999.90;;;;;;;;;;5059827;28;20044;-89
2023/12/11 06:19:33;;;;;;;1999.90;999.90;;;;;;;;;;5069198;28;20045;-89
2023/12/11 06:21:59;;;;;;;1999.90;999.90;;;;;;;;;;5070609;28;20498;-89
2023/12/11 06:24:26;;;;;;;1999.90;999.90;;;;;;;;;;5063193;28;20049;-89
2023/12/11 06:26:54;;;;;;;1999.90;999.90;;;;;;;;;;5067065;28;20140;-88
2023/12/11 06:29:21;;;;;;;1999.90;999.90;;;;;;;;;;5060674;28;20486;-87
2023/12/11 06:31:47;;;;;;;1999.90;999.90;;;;;;;;;;5062746;28;20397;-88
2023/12/11 06:34:14;;;;;;;1999.90;999.90;;;;;;;;;;5064420;28;20045;-88
2023/12/11 06:36:41;;;;;;;1999.90;999.90;;;;;;;;;;5063221;28;20053;-87
2023/12/11 06:39:07;;;;;;;1999.90;999.90;;;;;;;;;;5068122;28;20449;-88
2023/12/11 06:41:36;;;;;;;1999.90;999.90;;;;;;;;;;5062624;28;20037;-86
2023/12/11 06:44:04;;;;;;;1999.90;999.90;;;;;;;;;;5055732;28;20515;-86
2023/12/11 06:46:30;;;;;;;1999.90;999.90;;;;;;;;;;5056970;28;20497;-86
2023/12/11 06:48:57;;;;;;;1999.90;999.90;;;;;;;;;;5066056;28;20116;-87
2023/12/11 06:51:24;;;;;;;1999.90;999.90;;;;;;;;;;5064913;28;20041;-87
2023/12/11 06:53:51;;;;;;;1999.90;999.90;;;;;;;;;;5065268;28;20067;-86
2023/12/11 06:56:18;;;;;;;1999.90;999.90;;;;;;;;;;5063723;28;20045;-87
2023/12/11 06:58:45;;;;;;;1999.90;999.90;;;;;;;;;;5062765;28;20056;-86
2023/12/11 07:01:13;;;;;;;1999.90;999.90;;;;;;;;;;5068041;28;20048;-86
2023/12/11 07:03:40;;;;;;;1999.90;999.90;;;;;;;;;;5066311;28;20048;-86
2023/12/11 07:06:08;;;;;;;1999.90;999.90;;;;;;;;;;5062381;28;20046;-86
2023/12/11 07:08:35;;;;;;;1999.90;999.90;;;;;;;;;;5066441;28;20044;-90
2023/12/11 07:11:01;;;;;;;1999.90;999.90;;;;;;;;;;5063851;28;20048;-89
2023/12/11 07:13:28;;;;;;;1999.90;999.90;;;;;;;;;;5061857;28;20049;-89
2023/12/11 07:15:54;;;;;;;1999.90;999.90;;;;;;;;;;5063519;28;20045;-86
2023/12/11 07:18:22;;;;;;;1999.90;999.90;;;;;;;;;;5061813;28;20059;-86
2023/12/11 07:20:49;;;;;;;1999.90;999.90;;;;;;;;;;5067185;28;20052;-87
2023/12/11 07:23:15;;;;;;;1999.90;999.90;;;;;;;;;;5064851;28;20052;-86
2023/12/11 07:25:42;;;;;;;1999.90;999.90;;;;;;;;;;5058766;28;20044;-86
2023/12/11 07:28:09;;;;;;;1999.90;999.90;;;;;;;;;;5059556;28;20045;-87
2023/12/11 07:30:35;;;;;;;1999.90;999.90;;;;;;;;;;5059567;28;20053;-85
2023/12/11 07:33:02;;;;;;;1999.90;999.90;;;;;;;;;;5064817;28;20051;-85
2023/12/11 07:35:30;;;;;;;1999.90;999.90;;;;;;;;;;5062010;28;20049;-85
2023/12/11 07:37:56;;;;;;;1999.90;999.90;;;;;;;;;;5065973;28;20076;-84
2023/12/11 07:40:23;;;;;;;1999.90;999.90;;;;;;;;;;5061389;28;20049;-85
2023/12/11 07:42:50;;;;;;;1999.90;999.90;;;;;;;;;;5057499;28;20045;-84
2023/12/11 07:45:16;;;;;;;1999.90;999.90;;;;;;;;;;5062985;28;20614;-85
2023/12/11 07:47:43;;;;;;;1999.90;999.90;;;;;;;;;;5056033;28;20040;-85
2023/12/11 07:50:10;;;;;;;1999.90;999.90;;;;;;;;;;5063739;28;20042;-85
2023/12/11 07:52:38;;;;;;;1999.90;999.90;;;;;;;;;;5058843;28;20358;-85
2023/12/11 07:55:05;;;;;;;1999.90;999.90;;;;;;;;;;5059020;28;20054;-85
2023/12/11 07:57:32;;;;;;;1999.90;999.90;;;;;;;;;;5062875;28;20045;-85
2023/12/11 07:59:58;;;;;;;1999.90;999.90;;;;;;;;;;5061893;28;20061;-85
2023/12/11 08:02:25;;;;;;;1999.90;999.90;;;;;;;;;;5060807;28;20051;-85
2023/12/11 08:04:52;;;;;;;1999.90;999.90;;;;;;;;;;5060049;28;20052;-84
2023/12/11 08:07:19;;;;;;;1999.90;999.90;;;;;;;;;;5065836;28;20056;-86
2023/12/11 08:09:47;;;;;;;1999.90;999.90;;;;;;;;;;5061522;28;20440;-84
2023/12/11 08:12:14;;;;;;;1999.90;999.90;;;;;;;;;;5061339;28;20494;-84
2023/12/11 08:14:41;;;;;;;1999.90;999.90;;;;;;;;;;5065425;28;20050;-84
2023/12/11 08:17:07;;;;;;;1999.90;999.90;;;;;;;;;;5064604;28;20052;-86
2023/12/11 08:19:34;;;;;;;1999.90;999.90;;;;;;;;;;5068058;28;20060;-85
2023/12/11 08:22:01;;;;;;;1999.90;999.90;;;;;;;;;;5052649;28;20047;-85
2023/12/11 08:24:27;;;;;;;1999.90;999.90;;;;;;;;;;5064133;28;20118;-85
2023/12/11 08:26:55;;;;;;;1999.90;999.90;;;;;;;;;;5066886;28;20048;-86
2023/12/11 08:29:22;;;;;;;1999.90;999.90;;;;;;;;;;5062220;28;20049;-85
2023/12/11 08:31:48;;;;;;;1999.90;999.90;;;;;;;;;;5060525;28;20056;-84
2023/12/11 08:34:15;;;;;;;1999.90;999.90;;;;;;;;;;5058410;28;20045;-85
2023/12/11 08:36:42;;;;;;;1999.90;999.90;;;;;;;;;;5063158;28;20040;-86
2023/12/11 08:39:09;;;;;;;1999.90;999.90;;;;;;;;;;5061279;28;20055;-86
2023/12/11 08:41:36;;;;;;;1999.90;999.90;;;;;;;;;;5058268;28;20041;-86
2023/12/11 08:44:04;;;;;;;1999.90;999.90;;;;;;;;;;5061932;28;20127;-84
2023/12/11 08:46:31;;;;;;;1999.90;999.90;;;;;;;;;;5056732;28;20048;-86
2023/12/11 08:48:58;;;;;;;1999.90;999.90;;;;;;;;;;5061300;28;20049;-86
2023/12/11 08:51:25;;;;;;;1999.90;999.90;;;;;;;;;;5058370;28;20132;-85
2023/12/11 08:53:51;;;;;;;1999.90;999.90;;;;;;;;;;5061992;28;20053;-85
2023/12/11 08:56:20;;;;;;;1999.90;999.90;;;;;;;;;;5062393;28;20047;-86
2023/12/11 08:58:47;;;;;;;1999.90;999.90;;;;;;;;;;5059346;28;20053;-85
2023/12/11 09:01:15;;;;;;;1999.90;999.90;;;;;;;;;;5061466;28;20056;-85
2023/12/11 09:03:42;;;;;;;1999.90;999.90;;;;;;;;;;5057177;28;20041;-84
2023/12/11 09:06:09;;;;;;;1999.90;999.90;;;;;;;;;;5064184;28;20481;-85
2023/12/11 09:08:36;;;;;;;1999.90;999.90;;;;;;;;;;5061574;28;20048;-85
2023/12/11 09:11:02;;;;;;;1999.90;999.90;;;;;;;;;;5057903;28;20133;-87
2023/12/11 09:13:29;;;;;;;1999.90;999.90;;;;;;;;;;5065111;28;20048;-86
2023/12/11 09:15:55;;;;;;;1999.90;999.90;;;;;;;;;;5064140;28;20887;-84
2023/12/11 09:18:23;;;;;;;1999.90;999.90;;;;;;;;;;5064903;28;20040;-85
2023/12/11 09:20:50;;;;;;;1999.90;999.90;;;;;;;;;;5065734;28;20045;-85
2023/12/11 09:23:16;;;;;;;1999.90;999.90;;;;;;;;;;5065920;28;20049;-85
2023/12/11 09:25:43;;;;;;;1999.90;999.90;;;;;;;;;;5063842;28;20048;-86
2023/12/11 09:28:09;;;;;;;1999.90;999.90;;;;;;;;;;5063631;28;20048;-85
2023/12/11 09:30:36;;;;;;;1999.90;999.90;;;;;;;;;;5066370;28;20052;-85
2023/12/11 09:33:02;;;;;;;1999.90;999.90;;;;;;;;;;5063022;28;20055;-85
2023/12/11 09:35:30;;;;;;;1999.90;999.90;;;;;;;;;;5063129;28;20056;-85
2023/12/11 09:37:57;;;;;;;1999.90;999.90;;;;;;;;;;5064987;28;20049;-85
2023/12/11 09:40:23;;;;;;;1999.90;999.90;;;;;;;;;;5063129;28;20409;-85
2023/12/11 09:42:51;;;;;;;1999.90;999.90;;;;;;;;;;5066466;28;20052;-84
2023/12/11 09:45:21;;;;;;;1999.90;999.90;;;;;;;;;;5061762;28;20547;-84
2023/12/11 09:47:53;;;;;;;1999.90;999.90;;;;;;;;;;5065546;28;20127;-84
2023/12/11 09:50:20;;;;;;;1999.90;999.90;;;;;;;;;;5060227;28;20063;-85
2023/12/11 09:52:49;;;;;;;1999.90;999.90;;;;;;;;;;5057080;28;20053;-84
2023/12/11 09:55:16;;;;;;;1999.90;999.90;;;;;;;;;;5061996;28;20044;-85
2023/12/11 09:57:43;;;;;;;1999.90;999.90;;;;;;;;;;5061531;28;20152;-86
2023/12/11 10:00:11;;;;;;;1999.90;999.90;;;;;;;;;;5059484;28;20425;-85
2023/12/11 10:02:38;;;;;;;1999.90;999.90;;;;;;;;;;5063393;28;20151;-84
2023/12/11 10:05:07;;;;;;;1999.90;999.90;;;;;;;;;;5063412;28;20049;-85
2023/12/11 10:07:34;;;;;;;1999.90;999.90;;;;;;;;;;5062085;28;20122;-85
2023/12/11 10:10:18;;;;;;;1999.90;999.90;;;;;;;;;;5061588;28;20049;-86
2023/12/11 10:12:45;;;;;;;1999.90;999.90;;;;;;;;;;5060814;28;20048;-85
2023/12/11 10:15:11;;;;;;;1999.90;999.90;;;;;;;;;;5062230;28;20052;-86
2023/12/11 10:17:38;;;;;;;1999.90;999.90;;;;;;;;;;5064181;28;20090;-85
2023/12/11 10:20:15;;;;;;;1999.90;999.90;;;;;;;;;;5063264;28;20078;-85
2023/12/11 10:22:41;;;;;;;1999.90;999.90;;;;;;;;;;5063593;28;20044;-85
2023/12/11 10:25:09;;;;;;;1999.90;999.90;;;;;;;;;;5058420;28;20512;-84
2023/12/11 10:27:36;;;;;;;1999.90;999.90;;;;;;;;;;5067177;28;20075;-85
2023/12/11 10:30:11;;;;;;;1999.90;999.90;;;;;;;;;;5060358;28;20048;-85
2023/12/11 10:32:37;;;;;;;1999.90;999.90;;;;;;;;;;5066119;28;20174;-85
2023/12/11 10:35:06;;;;;;;1999.90;999.90;;;;;;;;;;5062472;28;20401;-84
2023/12/11 10:37:34;;;;;;;1999.90;999.90;;;;;;;;;;5058905;28;20041;-87
2023/12/11 10:40:01;;;;;;;1999.90;999.90;;;;;;;;;;5062324;28;20493;-85
2023/12/11 10:42:28;;;;;;;1999.90;999.90;;;;;;;;;;5059252;28;20053;-85
2023/12/11 10:44:56;;;;;;;1999.90;999.90;;;;;;;;;;5062995;28;20056;-85
2023/12/11 10:47:23;;;;;;;1999.90;999.90;;;;;;;;;;5061216;28;20045;-85
2023/12/11 10:49:51;;;;;;;1999.90;999.90;;;;;;;;;;5063585;28;20049;-85
2023/12/11 10:52:16;;;;;;;1999.90;999.90;;;;;;;;;;5060977;28;20062;-85
2023/12/11 10:54:43;;;;;;;1999.90;999.90;;;;;;;;;;5060827;28;20052;-86
2023/12/11 10:57:14;;;;;;;1999.90;999.90;;;;;;;;;;5064244;28;20524;-86
2023/12/11 10:59:41;;;;;;;1999.90;999.90;;;;;;;;;;5065517;28;20049;-85
2023/12/11 11:02:08;;;;;;;1999.90;999.90;;;;;;;;;;5061550;28;20053;-85
2023/12/11 11:04:37;;;;;;;1999.90;999.90;;;;;;;;;;5062722;28;20473;-86
2023/12/11 11:07:08;;;;;;;1999.90;999.90;;;;;;;;;;5060136;28;20059;-85
2023/12/11 11:09:49;;;;;;;1999.90;999.90;;;;;;;;;;5061575;28;20047;-85
2023/12/11 11:12:20;;;;;;;1999.90;999.90;;;;;;;;;;5064556;28;20666;-85
2023/12/11 11:14:49;;;;;;;1999.90;999.90;;;;;;;;;;5063564;28;20057;-85
2023/12/11 11:17:16;;;;;;;1999.90;999.90;;;;;;;;;;5063451;28;20059;-85
2023/12/11 11:20:10;;;;;;;1999.90;999.90;;;;;;;;;;5059762;28;20109;-85
2023/12/11 11:22:37;;;;;;;1999.90;999.90;;;;;;;;;;5063127;28;20044;-84
2023/12/11 11:25:33;;;;;;;1999.90;999.90;;;;;;;;;;5062504;28;20055;-84
2023/12/11 11:28:00;;;;;;;1999.90;999.90;;;;;;;;;;5055356;28;20041;-85
2023/12/11 11:30:51;;;;;;;1999.90;999.90;;;;;;;;;;5064987;28;20045;-85
2023/12/11 11:33:19;;;;;;;1999.90;999.90;;;;;;;;;;5064285;28;20044;-84
2023/12/11 11:35:48;;;;;;;1999.90;999.90;;;;;;;;;;5061214;28;20405;-84
2023/12/11 11:38:16;;;;;;;1999.90;999.90;;;;;;;;;;5061817;28;20494;-85
2023/12/11 11:40:43;;;;;;;1999.90;999.90;;;;;;;;;;5061092;28;20059;-84
2023/12/11 11:43:10;;;;;;;1999.90;999.90;;;;;;;;;;5061277;28;20056;-84
2023/12/11 11:45:37;;;;;;;1999.90;999.90;;;;;;;;;;5057812;28;20041;-85
2023/12/11 11:48:06;;;;;;;1999.90;999.90;;;;;;;;;;5064549;28;20052;-85
2023/12/11 11:50:32;;;;;;;1999.90;999.90;;;;;;;;;;5062283;28;20175;-84
2023/12/11 11:53:00;;;;;;;1999.90;999.90;;;;;;;;;;5065815;28;20049;-84
2023/12/11 11:55:27;;;;;;;1999.90;999.90;;;;;;;;;;5060590;28;20041;-83
2023/12/11 11:57:54;;;;;;;1999.90;999.90;;;;;;;;;;5055520;28;20045;-86
2023/12/11 12:00:25;;;;;;;1999.90;999.90;;;;;;;;;;5070313;28;20045;-85
2023/12/11 12:02:56;;;;;;;1999.90;999.90;;;;;;;;;;5056139;28;20493;-87
2023/12/11 12:05:24;;;;;;;1999.90;999.90;;;;;;;;;;5059328;28;20441;-86
2023/12/11 12:07:51;;;;;;;1999.90;999.90;;;;;;;;;;5066855;28;20087;-84
2023/12/11 12:10:18;;;;;;;1999.90;999.90;;;;;;;;;;5064762;28;20045;-85
2023/12/11 12:12:49;;;;;;;1999.90;999.90;;;;;;;;;;5065871;28;20049;-87
2023/12/11 12:15:16;;;;;;;1999.90;999.90;;;;;;;;;;5061925;28;20048;-86
2023/12/11 12:17:43;;;;;;;1999.90;999.90;;;;;;;;;;5064177;28;20045;-85
2023/12/11 12:20:11;;;;;;;1999.90;999.90;;;;;;;;;;5062090;28;20076;-86
2023/12/11 12:22:39;;;;;;;1999.90;999.90;;;;;;;;;;5063139;28;20051;-85
2023/12/11 12:25:14;;;;;;;1999.90;999.90;;;;;;;;;;5060430;28;20072;-86
2023/12/11 12:27:41;;;;;;;1999.90;999.90;;;;;;;;;;5056831;28;20052;-87
2023/12/11 12:30:09;;;;;;;1999.90;999.90;;;;;;;;;;5063031;28;20040;-85
2023/12/11 12:32:35;;;;;;;1999.90;999.90;;;;;;;;;;5061881;28;20049;-85
2023/12/11 12:35:04;;;;;;;1999.90;999.90;;;;;;;;;;5061422;28;20056;-87
2023/12/11 12:37:30;;;;;;;1999.90;999.90;;;;;;;;;;5061673;28;20044;-86
2023/12/11 12:39:58;;;;;;;1999.90;999.90;;;;;;;;;;5057033;28;20055;-86
2023/12/11 12:42:29;;;;;;;1999.90;999.90;;;;;;;;;;5057118;28;20183;-86
2023/12/11 12:44:56;;;;;;;1999.90;999.90;;;;;;;;;;5064208;28;20797;-86
2023/12/11 12:47:22;;;;;;;1999.90;999.90;;;;;;;;;;5055769;28;20049;-86
2023/12/11 12:49:49;;;;;;;1999.90;999.90;;;;;;;;;;5065136;28;20496;-87
2023/12/11 12:52:22;;;;;;;1999.90;999.90;;;;;;;;;;5062198;28;20490;-88
2023/12/11 12:54:49;;;;;;;1999.90;999.90;;;;;;;;;;5064686;28;20131;-86
2023/12/11 12:57:18;;;;;;;1999.90;999.90;;;;;;;;;;5066796;28;20496;-86
2023/12/11 12:59:45;;;;;;;1999.90;999.90;;;;;;;;;;5065824;28;20075;-85
2023/12/11 13:02:13;;;;;;;1999.90;999.90;;;;;;;;;;5061247;28;20511;-86
2023/12/11 13:04:49;;;;;;;1999.90;999.90;;;;;;;;;;5060408;28;20075;-86
2023/12/11 13:07:15;;;;;;;1999.90;999.90;;;;;;;;;;5067721;28;20087;-88
2023/12/11 13:09:42;;;;;;;1999.90;999.90;;;;;;;;;;5067269;28;20044;-87
2023/12/11 13:12:09;;;;;;;1999.90;999.90;;;;;;;;;;5062873;28;20101;-86
2023/12/11 13:14:37;;;;;;;1999.90;999.90;;;;;;;;;;5065610;28;20067;-86
2023/12/11 13:17:03;;;;;;;1999.90;999.90;;;;;;;;;;5062409;28;20059;-86
2023/12/11 13:19:30;;;;;;;1999.90;999.90;;;;;;;;;;5065603;28;20045;-87
2023/12/11 13:21:56;;;;;;;1999.90;999.90;;;;;;;;;;5061168;28;20406;-87
2023/12/11 13:24:23;;;;;;;1999.90;999.90;;;;;;;;;;5065507;28;20429;-87
2023/12/11 13:26:49;;;;;;;1999.90;999.90;;;;;;;;;;5066062;28;20045;-87
2023/12/11 13:29:16;;;;;;;1999.90;999.90;;;;;;;;;;5062419;28;20481;-87
2023/12/11 13:31:44;;;;;;;1999.90;999.90;;;;;;;;;;5064328;28;20420;-86
2023/12/11 13:34:10;;;;;;;1999.90;999.90;;;;;;;;;;5063197;28;20075;-87
2023/12/11 13:36:37;;;;;;;1999.90;999.90;;;;;;;;;;5065297;28;20048;-87
2023/12/11 13:39:05;;;;;;;1999.90;999.90;;;;;;;;;;5065407;28;20089;-87
2023/12/11 13:41:35;;;;;;;1999.90;999.90;;;;;;;;;;5065319;28;20053;-86
2023/12/11 13:44:02;;;;;;;1999.90;999.90;;;;;;;;;;5062456;28;20048;-86